Time;durP1;ratioP1;P1;durP2;ratioP2;P2;SDS_P1;SDS_P2;PMS_P1;PMS_P2;Temp;Humidity;BMP_temperature;BMP_pressure;BME280_temperature;BME280_humidity;BME280_pressure;Samples;Min_cycle;Max_cycle;Signal;HPM_P1;HPM_P2
2024/01/22 00:00:00;;;;;;;1.00;0.73;;;;;;;7.60;100.00;100783.56;4974174;28;20516;-92
2024/01/22 00:02:25;;;;;;;3.92;0.93;;;;;;;7.63;100.00;100788.78;4970632;28;20098;-92
2024/01/22 00:04:51;;;;;;;2.05;0.93;;;;;;;7.67;100.00;100797.63;4991362;28;20518;-91
2024/01/22 00:07:16;;;;;;;2.55;0.70;;;;;;;7.77;100.00;100779.66;4954340;28;20026;-91
2024/01/22 00:09:42;;;;;;;1.38;0.90;;;;;;;7.70;100.00;100751.97;4963393;28;20030;-91
2024/01/22 00:12:07;;;;;;;1.50;1.02;;;;;;;7.77;100.00;100746.97;4967676;28;20029;-93
2024/01/22 00:14:33;;;;;;;3.85;0.88;;;;;;;7.89;100.00;100742.53;4999632;28;20369;-92
2024/01/22 00:16:58;;;;;;;2.53;0.90;;;;;;;7.74;100.00;100728.13;4962918;28;20038;-92
2024/01/22 00:19:24;;;;;;;0.60;0.60;;;;;;;7.81;100.00;100714.94;4967260;28;20046;-93
2024/01/22 00:21:50;;;;;;;1.23;1.00;;;;;;;7.92;100.00;100706.88;4970544;28;20054;-92
2024/01/22 00:24:16;;;;;;;0.80;0.60;;;;;;;8.05;100.00;100685.94;4956587;28;20125;-91
2024/01/22 00:26:41;;;;;;;2.33;0.93;;;;;;;7.97;100.00;100692.91;4976330;28;20140;-92
2024/01/22 00:29:07;;;;;;;1.38;0.85;;;;;;;7.98;100.00;100683.75;4960645;28;20033;-93
2024/01/22 00:31:33;;;;;;;0.70;0.70;;;;;;;8.13;100.00;100673.59;4974553;28;20448;-93
2024/01/22 00:33:58;;;;;;;0.60;0.60;;;;;;;8.03;100.00;100674.25;4984956;28;20030;-92
2024/01/22 00:36:24;;;;;;;1.25;0.80;;;;;;;8.13;100.00;100676.31;4980059;28;20050;-92
2024/01/22 00:38:49;;;;;;;1.45;0.80;;;;;;;8.20;100.00;100667.59;4951226;28;20029;-92
2024/01/22 00:41:15;;;;;;;0.70;0.70;;;;;;;8.15;100.00;100653.44;4963519;28;20026;-93
2024/01/22 00:43:40;;;;;;;3.28;0.85;;;;;;;8.16;100.00;100643.38;4972505;28;20045;-93
2024/01/22 00:46:09;;;;;;;2.17;0.80;;;;;;;8.11;100.00;100635.53;4959717;28;20427;-92
2024/01/22 00:48:34;;;;;;;1.83;0.85;;;;;;;8.15;100.00;100650.72;4977890;28;20042;-93
2024/01/22 00:51:00;;;;;;;2.03;0.75;;;;;;;8.23;100.00;100641.94;4989584;28;20026;-95
2024/01/22 00:53:25;;;;;;;1.42;0.73;;;;;;;8.21;100.00;100639.31;4962749;28;20038;-93
2024/01/22 00:55:51;;;;;;;2.15;0.80;;;;;;;8.25;100.00;100627.22;4976854;28;20097;-93
2024/01/22 00:58:16;;;;;;;0.75;0.60;;;;;;;8.32;100.00;100615.88;4956464;28;20045;-92
2024/01/22 01:00:41;;;;;;;1.30;0.73;;;;;;;8.22;100.00;100600.16;4978020;28;20511;-93
2024/01/22 01:03:07;;;;;;;1.20;0.75;;;;;;;8.28;100.00;100607.06;4978425;28;20353;-93
2024/01/22 01:05:33;;;;;;;1.20;0.70;;;;;;;8.26;100.00;100592.63;4988441;28;20045;-93
2024/01/22 01:07:58;;;;;;;1.15;0.73;;;;;;;8.16;100.00;100605.22;4959006;28;20036;-93
2024/01/22 01:10:23;;;;;;;1.70;0.88;;;;;;;8.23;100.00;100610.09;4963202;28;20034;-93
2024/01/22 01:12:49;;;;;;;3.50;1.50;;;;;;;8.20;100.00;100593.97;4960670;28;20037;-93
2024/01/22 01:15:15;;;;;;;2.10;0.70;;;;;;;8.42;100.00;100609.59;4977393;28;20637;-91
2024/01/22 01:17:40;;;;;;;3.13;1.02;;;;;;;8.46;100.00;100607.53;4962458;28;20392;-93
2024/01/22 01:20:06;;;;;;;0.63;0.63;;;;;;;8.42;100.00;100614.19;4960753;28;20038;-92
2024/01/22 01:22:31;;;;;;;3.20;0.70;;;;;;;8.40;100.00;100614.31;4978659;28;20042;-91
2024/01/22 01:24:57;;;;;;;1.75;0.90;;;;;;;8.36;100.00;100617.38;4980515;28;20023;-92
2024/01/22 01:27:22;;;;;;;1.50;0.70;;;;;;;8.39;100.00;100609.81;4977282;28;20034;-91
2024/01/22 01:29:48;;;;;;;2.78;1.20;;;;;;;8.34;100.00;100590.22;4964925;28;20034;-92
2024/01/22 01:32:13;;;;;;;1.08;0.70;;;;;;;8.44;100.00;100584.97;4972812;28;20038;-92
2024/01/22 01:34:39;;;;;;;0.80;0.60;;;;;;;8.45;100.00;100603.09;5001435;28;20039;-91
2024/01/22 01:37:04;;;;;;;0.57;0.57;;;;;;;8.53;100.00;100600.66;4961619;28;20041;-91
2024/01/22 01:39:30;;;;;;;1.00;0.80;;;;;;;8.59;100.00;100586.56;4958358;28;20034;-91
2024/01/22 01:41:55;;;;;;;0.55;0.50;;;;;;;8.49;100.00;100580.03;4992727;28;20022;-91
2024/01/22 01:44:39;;;;;;;1.27;0.98;;;;;;;8.65;100.00;100580.63;4977378;28;20046;-92
2024/01/22 01:47:05;;;;;;;0.50;0.50;;;;;;;8.66;100.00;100567.88;4992699;28;20030;-91
2024/01/22 01:49:31;;;;;;;0.45;0.45;;;;;;;8.65;100.00;100566.97;4976626;28;20031;-92
2024/01/22 01:51:57;;;;;;;1.23;0.95;;;;;;;8.62;100.00;100559.06;4976022;28;20027;-91
2024/01/22 01:54:25;;;;;;;1.65;0.82;;;;;;;8.65;100.00;100560.66;4986855;28;20030;-92
2024/01/22 01:56:51;;;;;;;0.70;0.55;;;;;;;8.72;100.00;100531.03;4978679;28;20069;-92
2024/01/22 01:59:19;;;;;;;1.38;0.63;;;;;;;8.77;100.00;100506.97;4991053;28;20077;-91
2024/01/22 02:01:44;;;;;;;4.50;0.60;;;;;;;8.68;100.00;100489.47;4980626;28;20078;-91
2024/01/22 02:04:10;;;;;;;0.47;0.43;;;;;;;8.75;100.00;100509.81;4976897;28;20046;-91
2024/01/22 02:06:35;;;;;;;2.10;0.50;;;;;;;8.80;100.00;100495.81;4963817;28;20095;-91
2024/01/22 02:09:01;;;;;;;0.80;0.50;;;;;;;8.70;100.00;100479.28;4967039;28;20380;-91
2024/01/22 02:11:28;;;;;;;1.48;0.50;;;;;;;8.75;100.00;100481.66;4957840;28;20030;-91
2024/01/22 02:13:53;;;;;;;1.35;0.60;;;;;;;8.71;100.00;100502.03;4967534;28;20026;-92
2024/01/22 02:16:19;;;;;;;0.70;0.70;;;;;;;8.70;100.00;100492.06;4975990;28;20039;-92
2024/01/22 02:18:45;;;;;;;0.80;0.60;;;;;;;8.83;100.00;100476.47;4979167;28;20031;-91
2024/01/22 02:21:10;;;;;;;0.52;0.50;;;;;;;8.87;100.00;100471.66;4972668;28;20543;-92
2024/01/22 02:23:36;;;;;;;1.15;0.70;;;;;;;8.90;100.00;100480.47;4990509;28;20026;-94
2024/01/22 02:26:01;;;;;;;1.25;0.65;;;;;;;8.93;100.00;100485.69;4962791;28;20041;-93
2024/01/22 02:28:28;;;;;;;0.93;0.50;;;;;;;8.90;100.00;100496.84;4982481;28;20038;-93
2024/01/22 02:30:54;;;;;;;0.50;0.50;;;;;;;8.98;100.00;100482.59;4975919;28;20053;-93
2024/01/22 02:33:20;;;;;;;1.23;0.50;;;;;;;9.01;100.00;100477.75;4981479;28;20034;-93
2024/01/22 02:35:46;;;;;;;1.48;0.50;;;;;;;9.12;100.00;100476.06;4983727;28;20025;-93
2024/01/22 02:38:12;;;;;;;0.50;0.50;;;;;;;9.04;100.00;100441.16;4962896;28;20030;-93
2024/01/22 02:40:37;;;;;;;0.95;0.55;;;;;;;9.05;100.00;100429.25;4958469;28;20046;-93
2024/01/22 02:43:03;;;;;;;1.30;0.50;;;;;;;9.08;100.00;100419.94;4995146;28;20057;-93
2024/01/22 02:45:28;;;;;;;0.68;0.57;;;;;;;9.14;100.00;100430.38;4974616;28;20052;-92
2024/01/22 02:47:54;;;;;;;0.50;0.50;;;;;;;9.27;100.00;100424.81;4993576;28;20804;-92
2024/01/22 02:50:19;;;;;;;0.85;0.50;;;;;;;9.32;100.00;100403.44;4972532;28;20038;-92
2024/01/22 02:52:45;;;;;;;0.60;0.60;;;;;;;9.21;100.00;100393.38;4969993;28;20030;-92
2024/01/22 02:55:10;;;;;;;0.80;0.50;;;;;;;9.36;100.00;100397.59;4984469;28;20034;-92
2024/01/22 02:57:36;;;;;;;0.85;0.47;;;;;;;9.32;100.00;100398.84;4987557;28;20030;-92
2024/01/22 03:00:01;;;;;;;1.15;0.50;;;;;;;9.50;100.00;100382.78;4989132;28;20053;-92
2024/01/22 03:02:27;;;;;;;0.90;0.68;;;;;;;9.46;100.00;100381.31;4998730;28;20030;-92
2024/01/22 03:04:53;;;;;;;0.75;0.40;;;;;;;9.37;100.00;100371.13;4989864;28;20029;-93
2024/01/22 03:07:18;;;;;;;0.70;0.40;;;;;;;9.41;100.00;100358.09;4977071;28;20030;-90
2024/01/22 03:09:43;;;;;;;0.52;0.30;;;;;;;9.57;100.00;100366.75;4975983;28;20094;-90
2024/01/22 03:12:10;;;;;;;0.50;0.40;;;;;;;9.54;100.00;100356.06;4972661;28;20121;-92
2024/01/22 03:14:36;;;;;;;1.27;0.50;;;;;;;9.47;100.00;100352.13;4986777;28;20030;-93
2024/01/22 03:17:02;;;;;;;0.50;0.40;;;;;;;9.65;100.00;100347.84;4986438;28;20034;-92
2024/01/22 03:19:27;;;;;;;0.40;0.40;;;;;;;9.54;100.00;100347.88;4989003;28;20089;-92
2024/01/22 03:21:52;;;;;;;4.63;0.60;;;;;;;9.43;100.00;100339.69;4975127;28;20030;-91
2024/01/22 03:24:19;;;;;;;0.93;0.50;;;;;;;9.43;100.00;100321.47;4974001;28;20034;-91
2024/01/22 03:26:45;;;;;;;1.13;0.60;;;;;;;9.53;100.00;100327.88;5005129;28;20111;-93
2024/01/22 03:29:10;;;;;;;6.25;0.50;;;;;;;9.51;100.00;100329.00;4971418;28;20462;-92
2024/01/22 03:31:37;;;;;;;2.47;0.93;;;;;;;9.51;100.00;100331.72;4977046;28;20125;-92
2024/01/22 03:34:03;;;;;;;0.50;0.50;;;;;;;9.52;100.00;100337.06;4966512;28;20061;-92
2024/01/22 03:36:29;;;;;;;3.83;0.50;;;;;;;9.37;100.00;100294.63;4994277;28;20030;-93
2024/01/22 03:38:54;;;;;;;0.73;0.50;;;;;;;9.40;100.00;100308.06;4983493;28;20030;-92
2024/01/22 03:41:20;;;;;;;1.67;0.35;;;;;;;9.32;100.00;100319.59;4991813;28;20034;-93
2024/01/22 03:43:46;;;;;;;0.98;0.40;;;;;;;9.44;100.00;100314.13;4980283;28;20038;-93
2024/01/22 03:46:12;;;;;;;0.40;0.40;;;;;;;9.47;100.00;100317.47;4991559;28;20026;-92
2024/01/22 03:48:38;;;;;;;1.42;0.60;;;;;;;9.26;100.00;100317.38;4994267;28;20026;-93
2024/01/22 03:51:04;;;;;;;0.45;0.40;;;;;;;9.35;100.00;100302.09;4963940;28;20034;-93
2024/01/22 03:53:31;;;;;;;1.00;0.50;;;;;;;9.25;100.00;100312.94;4972680;28;20442;-92
2024/01/22 03:55:57;;;;;;;0.75;0.40;;;;;;;9.38;100.00;100308.19;4975304;28;20034;-93
2024/01/22 03:58:22;;;;;;;0.45;0.40;;;;;;;9.37;100.00;100300.09;4965400;28;20070;-93
2024/01/22 04:00:48;;;;;;;0.50;0.50;;;;;;;9.36;100.00;100292.88;4992357;28;20042;-93
2024/01/22 04:03:13;;;;;;;1.05;0.50;;;;;;;9.27;100.00;100290.94;4967194;28;20038;-93
2024/01/22 04:05:39;;;;;;;0.40;0.40;;;;;;;9.38;100.00;100285.47;4970161;28;20038;-93
2024/01/22 04:08:05;;;;;;;0.70;0.50;;;;;;;9.39;100.00;100259.84;4978451;28;20030;-95
2024/01/22 04:10:32;;;;;;;0.95;0.45;;;;;;;9.60;100.00;100273.56;4985908;28;20038;-94
2024/01/22 04:12:57;;;;;;;0.40;0.40;;;;;;;9.54;100.00;100285.91;4967273;28;20028;-94
2024/01/22 04:15:25;;;;;;;1.00;0.40;;;;;;;9.50;100.00;100280.81;4984696;28;20105;-94
2024/01/22 04:17:51;;;;;;;0.50;0.47;;;;;;;9.45;100.00;100269.41;4969003;28;20072;-93
2024/01/22 04:20:17;;;;;;;0.40;0.40;;;;;;;9.42;100.00;100275.13;4985935;28;20033;-93
2024/01/22 04:22:43;;;;;;;0.60;0.50;;;;;;;9.33;100.00;100274.91;4982444;28;20062;-94
2024/01/22 04:25:09;;;;;;;0.40;0.30;;;;;;;9.41;100.00;100274.25;4979644;28;20034;-94
2024/01/22 04:27:34;;;;;;;0.50;0.40;;;;;;;9.40;100.00;100271.66;4981579;28;20038;-94
2024/01/22 04:30:01;;;;;;;0.57;0.47;;;;;;;9.37;100.00;100276.38;4976557;28;20031;-94
2024/01/22 04:32:27;;;;;;;0.55;0.30;;;;;;;9.46;100.00;100273.88;4962017;28;20134;-93
2024/01/22 04:34:52;;;;;;;2.47;0.50;;;;;;;9.37;100.00;100256.38;4962354;28;20066;-93
2024/01/22 04:37:18;;;;;;;0.55;0.40;;;;;;;9.42;100.00;100269.66;4960389;28;20066;-93
2024/01/22 04:39:43;;;;;;;0.60;0.40;;;;;;;9.43;100.00;100261.34;4975742;28;20036;-93
2024/01/22 04:42:17;;;;;;;0.40;0.40;;;;;;;9.36;100.00;100277.38;4979565;28;20431;-94
2024/01/22 04:44:43;;;;;;;0.70;0.40;;;;;;;9.38;100.00;100269.91;4978477;28;20026;-95
2024/01/22 04:47:09;;;;;;;0.50;0.40;;;;;;;9.44;100.00;100267.66;4961500;28;20469;-94
2024/01/22 04:49:35;;;;;;;1.40;0.52;;;;;;;9.42;100.00;100269.66;4970360;28;20092;-94
2024/01/22 04:52:01;;;;;;;0.68;0.47;;;;;;;9.49;100.00;100268.16;4966040;28;20030;-95
2024/01/22 04:54:26;;;;;;;0.40;0.40;;;;;;;9.53;100.00;100259.56;4967176;28;20496;-94
2024/01/22 04:56:54;;;;;;;0.30;0.30;;;;;;;9.48;100.00;100255.50;4962238;28;20121;-92
2024/01/22 04:59:19;;;;;;;1.02;0.40;;;;;;;9.42;100.00;100250.53;4992573;28;20374;-93
2024/01/22 05:01:45;;;;;;;0.40;0.40;;;;;;;9.43;100.00;100253.16;4982360;28;20088;-92
2024/01/22 05:04:10;;;;;;;0.95;0.77;;;;;;;9.51;100.00;100247.00;4969777;28;20381;-92
2024/01/22 05:06:36;;;;;;;0.52;0.52;;;;;;;9.55;100.00;100259.44;4962374;28;20073;-92
2024/01/22 05:09:02;;;;;;;0.90;0.43;;;;;;;9.52;100.00;100241.41;4976263;28;20033;-92
2024/01/22 05:11:27;;;;;;;1.63;0.50;;;;;;;9.62;100.00;100244.25;4980472;28;20058;-92
2024/01/22 05:13:54;;;;;;;1.55;0.40;;;;;;;9.53;100.00;100220.44;4967933;28;20045;-93
2024/01/22 05:16:21;;;;;;;0.63;0.47;;;;;;;9.55;100.00;100235.69;4981704;28;20038;-93
2024/01/22 05:18:48;;;;;;;0.63;0.40;;;;;;;9.59;100.00;100241.75;4992899;28;20037;-93
2024/01/22 05:21:13;;;;;;;0.80;0.40;;;;;;;9.59;100.00;100239.03;4998468;28;20060;-92
2024/01/22 05:23:40;;;;;;;0.30;0.30;;;;;;;9.71;100.00;100234.41;4995574;28;20054;-92
2024/01/22 05:26:06;;;;;;;0.40;0.40;;;;;;;9.70;100.00;100235.41;4976057;28;20121;-93
2024/01/22 05:28:32;;;;;;;1.48;0.43;;;;;;;9.68;100.00;100224.59;4996841;28;20095;-90
2024/01/22 05:30:58;;;;;;;0.38;0.30;;;;;;;9.80;100.00;100219.06;4993857;28;20133;-92
2024/01/22 05:33:24;;;;;;;0.52;0.30;;;;;;;9.72;100.00;100214.25;4996271;28;20386;-91
2024/01/22 05:35:49;;;;;;;0.40;0.40;;;;;;;9.77;100.00;100233.84;4971719;28;20044;-90
2024/01/22 05:38:14;;;;;;;0.73;0.70;;;;;;;9.70;100.00;100238.97;4960360;28;20484;-90
2024/01/22 05:40:40;;;;;;;1.23;0.50;;;;;;;9.67;100.00;100230.19;4973285;28;20483;-90
2024/01/22 05:43:06;;;;;;;0.57;0.40;;;;;;;9.67;100.00;100243.84;4989642;28;20086;-89
2024/01/22 05:45:32;;;;;;;1.38;0.40;;;;;;;9.55;100.00;100237.56;4974870;28;20125;-91
2024/01/22 05:47:57;;;;;;;0.40;0.40;;;;;;;9.61;100.00;100238.91;4958300;28;20030;-93
2024/01/22 05:50:23;;;;;;;0.63;0.40;;;;;;;9.62;100.00;100236.03;4962139;28;20030;-89
2024/01/22 05:52:48;;;;;;;0.85;0.40;;;;;;;9.54;100.00;100225.78;4980179;28;20021;-90
2024/01/22 05:55:14;;;;;;;0.47;0.47;;;;;;;9.55;100.00;100232.09;4959280;28;20083;-91
2024/01/22 05:57:40;;;;;;;0.30;0.30;;;;;;;9.53;100.00;100221.31;4990170;28;20038;-89
2024/01/22 06:00:09;;;;;;;1.27;0.40;;;;;;;9.52;100.00;100224.16;4979259;28;20061;-90
2024/01/22 06:02:41;;;;;;;1.73;0.40;;;;;;;9.48;100.00;100228.16;4978301;28;20034;-93
2024/01/22 06:05:07;;;;;;;1.30;0.40;;;;;;;9.44;100.00;100219.34;4971413;28;20042;-91
2024/01/22 06:07:33;;;;;;;0.50;0.50;;;;;;;9.53;100.00;100220.44;4987814;28;20026;-91
2024/01/22 06:09:58;;;;;;;0.98;0.50;;;;;;;9.54;100.00;100220.31;4993717;28;20030;-90
2024/01/22 06:12:25;;;;;;;0.43;0.43;;;;;;;9.58;100.00;100226.38;4962002;28;20403;-92
2024/01/22 06:14:51;;;;;;;0.77;0.40;;;;;;;9.54;100.00;100213.97;4977077;28;20030;-91
2024/01/22 06:17:16;;;;;;;1.23;0.47;;;;;;;9.57;100.00;100227.38;4961928;28;20030;-92
2024/01/22 06:19:41;;;;;;;1.00;0.40;;;;;;;9.55;100.00;100221.19;4974736;28;20042;-92
2024/01/22 06:22:07;;;;;;;1.38;0.60;;;;;;;9.55;100.00;100223.91;4963139;28;20384;-90
2024/01/22 06:24:38;;;;;;;0.45;0.45;;;;;;;9.56;100.00;100237.44;5007273;28;20105;-93
2024/01/22 06:27:03;;;;;;;0.60;0.60;;;;;;;9.51;100.00;100225.16;4979857;28;20116;-90
2024/01/22 06:29:29;;;;;;;1.13;0.50;;;;;;;9.45;100.00;100228.44;4981642;28;20035;-93
2024/01/22 06:31:58;;;;;;;1.33;0.65;;;;;;;9.47;100.00;100235.47;4957651;28;20404;-94
2024/01/22 06:34:23;;;;;;;1.58;0.50;;;;;;;9.45;100.00;100242.09;4994194;28;20030;-93
2024/01/22 06:36:49;;;;;;;0.60;0.50;;;;;;;9.52;100.00;100232.38;4975941;28;20085;-93
2024/01/22 06:39:14;;;;;;;2.17;0.57;;;;;;;9.45;100.00;100223.81;4961459;28;20027;-92
2024/01/22 06:41:41;;;;;;;0.50;0.50;;;;;;;9.51;100.00;100223.31;4961286;28;20030;-91
2024/01/22 06:44:07;;;;;;;1.80;0.63;;;;;;;9.60;100.00;100238.03;4976685;28;20022;-92
2024/01/22 06:46:32;;;;;;;1.42;0.55;;;;;;;9.55;100.00;100219.31;4976117;28;20038;-91
2024/01/22 06:48:58;;;;;;;0.98;0.70;;;;;;;9.62;100.00;100235.19;4985935;28;20022;-92
2024/01/22 06:51:23;;;;;;;1.02;0.50;;;;;;;9.65;100.00;100233.06;4958832;28;20065;-90
2024/01/22 06:53:50;;;;;;;0.93;0.65;;;;;;;9.62;100.00;100240.66;4997752;28;20360;-92
2024/01/22 06:56:15;;;;;;;3.42;0.50;;;;;;;9.59;100.00;100230.84;4983880;28;20031;-91
2024/01/22 06:58:41;;;;;;;0.50;0.50;;;;;;;9.68;100.00;100240.13;4977167;28;20042;-95
2024/01/22 07:01:07;;;;;;;0.65;0.60;;;;;;;9.61;100.00;100237.06;4996658;28;20050;-91
2024/01/22 07:03:35;;;;;;;0.95;0.50;;;;;;;9.65;100.00;100248.59;4985978;28;20026;-91
2024/01/22 07:06:00;;;;;;;1.48;0.55;;;;;;;9.77;100.00;100250.25;4977878;28;20038;-92
2024/01/22 07:08:26;;;;;;;0.90;0.68;;;;;;;9.70;100.00;100258.13;4961868;28;20026;-91
2024/01/22 07:10:51;;;;;;;0.57;0.52;;;;;;;9.73;100.00;100251.53;4962563;28;20049;-91
2024/01/22 07:13:17;;;;;;;0.55;0.55;;;;;;;9.71;100.00;100254.41;4962450;28;20030;-91
2024/01/22 07:15:42;;;;;;;0.70;0.50;;;;;;;9.81;100.00;100259.09;4963891;28;20022;-90
2024/01/22 07:18:08;;;;;;;1.85;0.63;;;;;;;9.85;100.00;100285.16;4987293;28;20416;-90
2024/01/22 07:20:34;;;;;;;0.50;0.50;;;;;;;9.84;100.00;100297.09;4984086;28;20054;-92
2024/01/22 07:23:00;;;;;;;2.47;0.70;;;;;;;9.85;100.00;100307.03;4980130;28;20063;-92
2024/01/22 07:25:25;;;;;;;1.38;0.60;;;;;;;9.88;100.00;100309.50;5000328;28;20033;-92
2024/01/22 07:27:51;;;;;;;2.25;0.70;;;;;;;9.84;100.00;100305.28;4985939;28;20030;-91
2024/01/22 07:30:17;;;;;;;0.40;0.40;;;;;;;9.85;100.00;100302.41;4991990;28;20030;-90
2024/01/22 07:32:43;;;;;;;2.70;0.73;;;;;;;9.88;100.00;100296.69;4999758;28;20089;-90
2024/01/22 07:35:11;;;;;;;2.83;0.70;;;;;;;9.86;100.00;100289.63;4979596;28;20034;-90
2024/01/22 07:37:42;;;;;;;1.55;0.60;;;;;;;9.95;100.00;100280.63;4976411;28;20037;-92
2024/01/22 07:40:11;;;;;;;4.00;0.88;;;;;;;9.89;100.00;100278.44;4993623;28;20187;-92
2024/01/22 07:42:39;;;;;;;1.38;0.60;;;;;;;9.98;100.00;100280.38;4987832;28;20031;-91
2024/01/22 07:45:06;;;;;;;1.83;0.47;;;;;;;10.05;100.00;100292.53;4990868;28;20030;-90
2024/01/22 07:47:33;;;;;;;1.13;0.50;;;;;;;10.12;100.00;100292.88;5004040;28;20441;-91
2024/01/22 07:49:59;;;;;;;1.42;0.50;;;;;;;10.16;100.00;100302.53;5005049;28;20030;-90
2024/01/22 07:52:30;;;;;;;1.13;0.50;;;;;;;10.25;100.00;100289.94;4963855;28;20026;-96
2024/01/22 07:55:02;;;;;;;2.92;0.50;;;;;;;10.24;100.00;100297.25;4994545;28;20031;-92
2024/01/22 07:57:28;;;;;;;2.15;0.70;;;;;;;10.29;100.00;100288.66;4970364;28;20034;-91
2024/01/22 07:59:55;;;;;;;1.80;0.60;;;;;;;10.25;100.00;100295.41;4983732;28;20066;-93
2024/01/22 08:02:20;;;;;;;2.38;0.80;;;;;;;10.39;100.00;100297.81;4989207;28;20073;-90
2024/01/22 08:04:45;;;;;;;3.28;0.60;;;;;;;10.35;100.00;100293.63;4995746;28;20487;-90
2024/01/22 08:07:11;;;;;;;1.23;0.57;;;;;;;10.37;100.00;100288.88;4976711;28;20510;-89
2024/01/22 08:09:37;;;;;;;2.85;0.60;;;;;;;10.38;100.00;100284.28;4978191;28;20528;-89
2024/01/22 08:12:04;;;;;;;3.10;0.55;;;;;;;10.52;100.00;100286.66;4992232;28;20022;-95
2024/01/22 08:14:33;;;;;;;10.70;1.40;;;;;;;10.56;100.00;100284.53;4997568;28;20125;-91
2024/01/22 08:17:01;;;;;;;4.15;0.80;;;;;;;10.54;100.00;100272.84;4993285;28;20479;-90
2024/01/22 08:19:27;;;;;;;2.08;0.65;;;;;;;10.63;100.00;100278.38;5009805;28;20022;-92
2024/01/22 08:21:53;;;;;;;4.20;0.93;;;;;;;10.56;100.00;100285.41;4985442;28;20034;-89
2024/01/22 08:24:19;;;;;;;5.65;0.95;;;;;;;10.57;100.00;100270.69;4959577;28;20042;-90
2024/01/22 08:26:45;;;;;;;5.43;0.95;;;;;;;10.54;100.00;100301.06;4973279;28;20122;-91
2024/01/22 08:29:11;;;;;;;3.35;1.05;;;;;;;10.61;100.00;100287.75;4992820;28;20062;-89
2024/01/22 08:31:37;;;;;;;1.98;0.60;;;;;;;10.58;100.00;100293.50;4958147;28;20482;-90
2024/01/22 08:34:03;;;;;;;3.40;0.70;;;;;;;10.41;100.00;100286.75;4974774;28;20026;-91
2024/01/22 08:36:28;;;;;;;2.80;0.70;;;;;;;10.34;100.00;100297.34;4978037;28;20034;-89
2024/01/22 08:38:54;;;;;;;1.35;0.70;;;;;;;10.35;100.00;100293.63;4994202;28;20034;-91
2024/01/22 08:41:21;;;;;;;4.22;0.70;;;;;;;10.35;100.00;100288.16;4965284;28;20046;-91
2024/01/22 08:43:46;;;;;;;1.70;0.50;;;;;;;10.41;100.00;100293.09;4962933;28;20027;-91
2024/01/22 08:46:12;;;;;;;1.55;0.50;;;;;;;10.39;100.00;100295.09;4983972;28;20022;-90
2024/01/22 08:48:37;;;;;;;1.85;0.43;;;;;;;10.38;100.00;100293.38;4979416;28;20149;-93
2024/01/22 08:51:03;;;;;;;1.75;0.70;;;;;;;10.37;100.00;100294.34;4958040;28;20100;-89
2024/01/22 08:53:29;;;;;;;2.20;0.63;;;;;;;10.39;100.00;100292.34;4972737;28;20369;-93
2024/01/22 08:55:55;;;;;;;1.67;0.70;;;;;;;10.37;100.00;100297.09;4976080;28;20042;-90
2024/01/22 08:58:21;;;;;;;2.58;0.63;;;;;;;10.41;100.00;100298.56;4962314;28;20026;-90
2024/01/22 09:00:47;;;;;;;1.00;0.60;;;;;;;10.49;100.00;100295.16;4965547;28;20054;-89
2024/01/22 09:03:13;;;;;;;2.25;0.50;;;;;;;10.50;100.00;100307.84;4961554;28;20479;-88
2024/01/22 09:05:38;;;;;;;1.55;0.60;;;;;;;10.44;100.00;100306.50;4961975;28;20041;-89
2024/01/22 09:08:05;;;;;;;2.08;0.65;;;;;;;10.44;100.00;100303.75;4960358;28;20052;-90
2024/01/22 09:10:31;;;;;;;3.83;0.80;;;;;;;10.44;100.00;100303.75;4986067;28;20046;-90
2024/01/22 09:12:56;;;;;;;1.30;0.70;;;;;;;10.38;100.00;100304.31;4981667;28;20045;-90
2024/01/22 09:15:22;;;;;;;13.35;0.70;;;;;;;10.42;100.00;100283.00;4990478;28;20033;-90
2024/01/22 09:17:47;;;;;;;4.75;0.75;;;;;;;10.44;100.00;100294.69;4976712;28;20076;-88
2024/01/22 09:20:13;;;;;;;7.57;0.90;;;;;;;10.51;100.00;100297.75;4987795;28;20037;-89
2024/01/22 09:22:39;;;;;;;1.90;0.65;;;;;;;10.71;100.00;100312.41;4971270;28;20054;-88
2024/01/22 09:25:06;;;;;;;6.18;0.60;;;;;;;10.62;100.00;100314.09;4970262;28;20048;-89
2024/01/22 09:27:32;;;;;;;3.80;0.70;;;;;;;10.48;100.00;100307.97;4961671;28;20038;-90
2024/01/22 09:29:58;;;;;;;2.67;0.77;;;;;;;10.43;100.00;100298.44;4990769;28;20038;-90
2024/01/22 09:32:25;;;;;;;3.22;0.75;;;;;;;10.44;100.00;100292.81;4988647;28;20019;-90
2024/01/22 09:34:51;;;;;;;3.45;0.70;;;;;;;10.51;100.00;100295.00;4975190;28;20121;-90
2024/01/22 09:37:16;;;;;;;5.28;0.80;;;;;;;10.50;100.00;100287.81;4988578;28;20139;-94
2024/01/22 09:39:45;;;;;;;4.95;1.20;;;;;;;10.62;100.00;100304.00;5004464;28;20091;-90
2024/01/22 09:42:14;;;;;;;6.75;1.33;;;;;;;10.60;100.00;100299.69;4998236;28;20038;-95
2024/01/22 09:44:40;;;;;;;9.95;2.00;;;;;;;10.56;100.00;100293.63;4997414;28;20110;-94
2024/01/22 09:47:07;;;;;;;3.33;0.80;;;;;;;10.52;100.00;100302.22;4987881;28;20038;-94
2024/01/22 09:49:32;;;;;;;2.25;0.80;;;;;;;10.51;100.00;100304.13;5002759;28;20072;-94
2024/01/22 09:51:58;;;;;;;3.25;0.60;;;;;;;10.48;100.00;100298.91;4963215;28;20132;-94
2024/01/22 09:54:29;;;;;;;2.40;0.88;;;;;;;10.55;100.00;100297.34;4993465;28;20034;-94
2024/01/22 09:56:55;;;;;;;3.42;0.60;;;;;;;10.56;100.00;100295.47;4989920;28;20149;-95
2024/01/22 09:59:28;;;;;;;5.57;1.08;;;;;;;10.58;100.00;100307.19;4994444;28;20598;-94
2024/01/22 10:01:53;;;;;;;6.63;1.02;;;;;;;10.53;100.00;100295.78;5005820;28;20045;-95
2024/01/22 10:04:19;;;;;;;2.20;0.70;;;;;;;10.66;100.00;100310.09;4992841;28;21507;-94
2024/01/22 10:06:46;;;;;;;4.25;1.00;;;;;;;10.63;100.00;100319.44;4978186;28;20033;-95
2024/01/22 10:09:15;;;;;;;5.18;0.90;;;;;;;10.64;100.00;100312.97;4972172;28;20061;-95
2024/01/22 10:11:50;;;;;;;3.28;0.82;;;;;;;10.59;100.00;100317.09;4978869;28;20404;-94
2024/01/22 10:14:15;;;;;;;4.38;1.10;;;;;;;10.58;100.00;100310.78;4961516;28;20035;-94
2024/01/22 10:16:41;;;;;;;4.30;0.70;;;;;;;10.56;100.00;100314.63;4981342;28;20077;-94
2024/01/22 10:19:09;;;;;;;2.45;0.65;;;;;;;10.77;100.00;100323.72;4959873;28;20078;-95
2024/01/22 10:21:36;;;;;;;4.38;1.10;;;;;;;10.74;100.00;100314.88;5013518;28;20037;-95
2024/01/22 10:24:07;;;;;;;6.90;1.20;;;;;;;10.77;100.00;100326.44;4988439;28;20034;-95
2024/01/22 10:26:33;;;;;;;4.15;0.70;;;;;;;10.83;100.00;100317.66;4988583;28;20041;-95
2024/01/22 10:29:21;;;;;;;4.03;0.73;;;;;;;10.92;100.00;100334.28;5001373;28;20092;-93
2024/01/22 10:32:01;;;;;;;5.55;1.13;;;;;;;10.81;100.00;100327.91;4995933;28;20117;-95
2024/01/22 10:34:29;;;;;;;5.55;1.08;;;;;;;10.87;100.00;100353.91;5004712;28;20114;-94
2024/01/22 10:37:11;;;;;;;8.48;1.23;;;;;;;10.83;100.00;100347.78;4981579;28;20480;-95
2024/01/22 10:39:38;;;;;;;4.18;1.05;;;;;;;10.72;100.00;100356.09;4977105;28;20066;-95
2024/01/22 10:42:19;;;;;;;1.77;0.85;;;;;;;10.57;100.00;100363.78;4981250;28;20046;-95
2024/01/22 10:44:46;;;;;;;7.03;1.08;;;;;;;10.47;100.00;100366.44;5001019;28;20395;-94
2024/01/22 10:47:15;;;;;;;7.80;1.15;;;;;;;10.44;100.00;100369.44;4967626;28;20022;-90
2024/01/22 10:49:47;;;;;;;5.50;1.10;;;;;;;10.40;100.00;100372.59;4964634;28;20034;-91
2024/01/22 10:52:13;;;;;;;6.10;1.10;;;;;;;10.40;100.00;100403.56;4990838;28;20128;-90
2024/01/22 10:54:39;;;;;;;5.00;1.45;;;;;;;10.29;100.00;100436.41;5011293;28;20116;-93
2024/01/22 10:57:35;;;;;;;6.55;1.10;;;;;;;9.82;100.00;100430.31;4992346;28;20022;-92
2024/01/22 11:00:06;;;;;;;5.25;1.63;;;;;;;9.05;100.00;100431.09;4991965;28;20077;-91
2024/01/22 11:02:34;;;;;;;6.47;1.40;;;;;;;8.74;100.00;100452.63;5007252;28;20029;-90
2024/01/22 11:05:05;;;;;;;6.10;1.30;;;;;;;8.68;100.00;100447.66;5003568;28;20060;-93
2024/01/22 11:07:37;;;;;;;7.97;1.30;;;;;;;8.61;100.00;100455.47;4982032;28;20375;-89
2024/01/22 11:10:03;;;;;;;7.53;1.70;;;;;;;8.50;100.00;100445.38;4998355;28;20026;-90
2024/01/22 11:12:45;;;;;;;11.68;2.13;;;;;;;8.43;100.00;100453.16;4958510;28;20030;-90
2024/01/22 11:15:11;;;;;;;10.60;1.35;;;;;;;8.39;100.00;100445.28;4998986;28;20018;-92
2024/01/22 11:17:36;;;;;;;9.65;1.60;;;;;;;8.36;100.00;100450.97;4978069;28;20492;-90